Time;durP1;ratioP1;P1;durP2;ratioP2;P2;SDS_P1;SDS_P2;PMS_P1;PMS_P2;Temp;Humidity;BMP_temperature;BMP_pressure;BME280_temperature;BME280_humidity;BME280_pressure;Samples;Min_cycle;Max_cycle;Signal;HPM_P1;HPM_P2
2024/03/28 12:30:27;;;;;;;1.65;1.50;;;;;;;;;;6160913;22;20231;-93
2024/03/28 12:33:05;;;;;;;1.35;1.25;;;;;;;;;;6227286;23;20012;-88
2024/03/28 12:35:51;;;;;;;1.50;1.40;;;;;;;;;;6253376;23;20035;-87
2024/03/28 12:38:22;;;;;;;1.50;1.40;;;;;;;;;;6225692;23;20009;-91
2024/03/28 12:40:55;;;;;;;1.50;1.40;;;;;;;;;;6254077;23;20374;-87
2024/03/28 12:43:33;;;;;;;1.63;1.52;;;;;;;;;;6258907;23;20095;-87
2024/03/28 12:46:09;;;;;;;1.45;1.35;;;;;;;;;;6229562;23;20004;-88
2024/03/28 17:33:05;;;;;;;6.53;5.35;;;;;;;;;;6209076;22;20031;-90
2024/03/28 17:35:31;;;;;;;5.43;3.65;;;;;;;;;;6219812;23;20094;-91
2024/03/28 17:37:56;;;;;;;2.72;2.22;;;;;;;;;;6220599;23;20008;-91
2024/03/28 17:40:22;;;;;;;3.58;2.85;;;;;;;;;;6220554;23;20004;-90
2024/03/28 17:42:49;;;;;;;7.15;4.65;;;;;;;;;;6220332;23;19996;-91
2024/03/28 17:45:15;;;;;;;6.32;3.78;;;;;;;;;;6220292;23;20010;-91
2024/03/28 17:47:42;;;;;;;4.30;3.83;;;;;;;;;;6220412;23;20004;-92
2024/03/28 17:50:07;;;;;;;3.88;3.47;;;;;;;;;;6224352;23;20431;-92
2024/03/28 17:52:33;;;;;;;13.65;9.73;;;;;;;;;;6230975;23;20000;-92
2024/03/28 17:54:59;;;;;;;6.00;4.68;;;;;;;;;;6227571;23;20408;-90
2024/03/28 17:57:25;;;;;;;5.45;4.90;;;;;;;;;;6247418;23;20396;-91
2024/03/28 17:59:53;;;;;;;5.28;3.63;;;;;;;;;;6223769;23;20004;-92
2024/03/28 18:02:26;;;;;;;3.00;2.60;;;;;;;;;;6253738;23;20423;-92
2024/03/28 18:04:52;;;;;;;3.67;2.78;;;;;;;;;;6222344;23;20083;-93
2024/03/28 18:07:21;;;;;;;3.35;2.60;;;;;;;;;;6224180;23;20008;-93
2024/03/28 18:09:50;;;;;;;2.80;2.60;;;;;;;;;;6200259;23;20023;-96
2024/03/28 18:12:18;;;;;;;2.58;2.20;;;;;;;;;;6223595;23;20012;-95
2024/03/28 18:14:45;;;;;;;3.00;2.58;;;;;;;;;;6233891;23;20004;-91
2024/03/28 18:17:10;;;;;;;3.22;2.92;;;;;;;;;;6230799;23;20060;-93
2024/03/28 18:19:37;;;;;;;3.45;3.15;;;;;;;;;;6250858;23;20057;-91
2024/03/28 18:22:03;;;;;;;3.88;3.58;;;;;;;;;;6223510;23;20012;-91
2024/03/28 18:24:29;;;;;;;4.20;3.33;;;;;;;;;;6248703;23;20000;-90
2024/03/28 18:26:54;;;;;;;6.10;5.00;;;;;;;;;;6254606;23;20007;-95
2024/03/28 18:29:20;;;;;;;30.45;18.55;;;;;;;;;;6222829;23;20007;-95
2024/03/28 18:31:45;;;;;;;46.05;21.35;;;;;;;;;;6224076;23;20094;-92
2024/03/28 18:34:11;;;;;;;29.23;19.50;;;;;;;;;;6223411;23;20019;-92
2024/03/28 18:36:36;;;;;;;11.02;9.13;;;;;;;;;;6225791;23;20080;-92
2024/03/28 18:39:03;;;;;;;6.80;6.03;;;;;;;;;;6224805;23;20004;-93
2024/03/28 18:41:31;;;;;;;7.35;4.80;;;;;;;;;;6223742;23;20484;-91
2024/03/28 18:43:57;;;;;;;4.82;3.30;;;;;;;;;;6260375;23;20488;-90
2024/03/28 18:46:26;;;;;;;4.88;2.83;;;;;;;;;;6255360;23;20011;-90
2024/03/28 18:49:09;;;;;;;3.38;3.10;;;;;;;;;;6227237;23;20451;-90
2024/03/28 18:51:35;;;;;;;3.33;3.03;;;;;;;;;;6230928;23;20131;-90
2024/03/28 18:54:10;;;;;;;3.50;3.20;;;;;;;;;;6225114;23;20004;-91
2024/03/28 18:56:37;;;;;;;5.20;4.07;;;;;;;;;;6223735;23;20016;-91
2024/03/28 18:59:02;;;;;;;5.47;4.22;;;;;;;;;;6223589;23;20000;-89
2024/03/28 19:01:28;;;;;;;6.53;5.22;;;;;;;;;;6222673;23;20091;-90
2024/03/28 19:03:54;;;;;;;6.03;5.40;;;;;;;;;;6222240;23;20008;-91
2024/03/28 19:06:19;;;;;;;7.78;6.13;;;;;;;;;;6249279;23;20011;-91
2024/03/28 19:08:45;;;;;;;6.97;6.28;;;;;;;;;;6222422;23;20452;-92
2024/03/28 19:11:14;;;;;;;6.43;5.65;;;;;;;;;;6222494;23;20500;-91
2024/03/28 19:13:45;;;;;;;6.35;5.75;;;;;;;;;;6223923;23;20004;-90
2024/03/28 21:25:44;;;;;;;5.38;4.30;;;;;;;;;;6246354;22;20043;-91
2024/03/28 21:28:12;;;;;;;5.68;4.50;;;;;;;;;;6260594;23;20046;-96
2024/03/28 21:30:41;;;;;;;7.38;4.47;;;;;;;;;;6229644;23;20009;-96
2024/03/28 21:33:11;;;;;;;7.15;4.55;;;;;;;;;;6263483;23;19991;-90
2024/03/28 21:35:37;;;;;;;7.20;4.65;;;;;;;;;;6240104;23;20020;-92
2024/03/28 21:38:28;;;;;;;6.85;5.20;;;;;;;;;;6239749;23;20062;-89
2024/03/28 21:41:03;;;;;;;6.90;4.90;;;;;;;;;;6239580;23;20023;-92
2024/03/28 21:43:32;;;;;;;6.55;4.82;;;;;;;;;;6254663;23;20004;-90
2024/03/28 21:46:00;;;;;;;7.55;5.28;;;;;;;;;;6239774;23;20015;-91
2024/03/28 21:48:28;;;;;;;9.23;5.50;;;;;;;;;;6240253;23;20004;-91
2024/03/28 21:50:58;;;;;;;10.63;5.40;;;;;;;;;;6214430;23;20016;-91
2024/03/28 21:53:27;;;;;;;8.88;6.63;;;;;;;;;;6267881;23;20030;-91
2024/03/28 21:56:03;;;;;;;8.20;6.03;;;;;;;;;;6241938;23;19988;-92
2024/03/28 21:58:29;;;;;;;9.43;6.22;;;;;;;;;;6266305;23;20269;-91
2024/03/28 22:01:03;;;;;;;9.38;6.72;;;;;;;;;;6265346;23;20008;-92
2024/03/28 22:03:29;;;;;;;8.30;6.28;;;;;;;;;;6265135;23;20004;-91
2024/03/28 22:06:08;;;;;;;10.00;7.63;;;;;;;;;;6247385;23;20004;-93
2024/03/28 22:09:00;;;;;;;14.20;8.23;;;;;;;;;;6247357;23;20051;-95
2024/03/28 22:11:45;;;;;;;14.90;9.88;;;;;;;;;;6239490;23;20004;-92
2024/03/28 22:14:14;;;;;;;13.27;9.40;;;;;;;;;;6248542;22;20046;-90
2024/03/28 22:16:42;;;;;;;14.85;10.55;;;;;;;;;;6271766;23;20762;-92
2024/03/28 22:19:12;;;;;;;17.73;11.68;;;;;;;;;;6247648;23;19988;-93
2024/03/28 22:21:40;;;;;;;17.45;10.55;;;;;;;;;;6225125;23;20055;-92
2024/03/28 22:24:14;;;;;;;16.75;10.95;;;;;;;;;;6159010;23;20065;-92
2024/03/28 22:27:02;;;;;;;14.00;10.00;;;;;;;;;;6183321;23;20017;-90
2024/03/28 22:29:30;;;;;;;17.10;10.10;;;;;;;;;;6149269;23;20028;-91
2024/03/28 22:32:04;;;;;;;15.50;10.95;;;;;;;;;;6173855;23;20088;-90
2024/03/28 22:34:32;;;;;;;15.45;11.35;;;;;;;;;;6153422;23;20013;-93
2024/03/28 22:37:04;;;;;;;18.65;10.73;;;;;;;;;;6182936;23;20073;-92
2024/03/28 22:39:31;;;;;;;12.60;9.25;;;;;;;;;;6126729;23;20017;-91
2024/03/28 22:41:59;;;;;;;13.60;9.70;;;;;;;;;;6178248;23;19989;-91
2024/03/28 22:44:30;;;;;;;12.43;8.63;;;;;;;;;;6149089;23;20314;-92
2024/03/28 22:46:55;;;;;;;12.75;8.93;;;;;;;;;;6174409;23;19997;-91
2024/03/28 22:49:23;;;;;;;13.18;8.77;;;;;;;;;;6175444;23;20013;-92
2024/03/28 22:51:51;;;;;;;12.07;7.65;;;;;;;;;;6149329;23;20006;-92
2024/03/28 22:54:19;;;;;;;12.27;7.65;;;;;;;;;;6148430;23;20013;-92
2024/03/28 22:56:46;;;;;;;12.70;7.53;;;;;;;;;;6172682;23;20010;-91
2024/03/28 22:59:12;;;;;;;14.18;9.80;;;;;;;;;;6151278;23;20080;-91
2024/03/28 23:01:38;;;;;;;17.55;10.00;;;;;;;;;;6148664;23;20489;-91
2024/03/28 23:04:28;;;;;;;16.17;11.23;;;;;;;;;;6142964;23;19995;-91
2024/03/28 23:06:55;;;;;;;16.00;10.25;;;;;;;;;;6182038;23;20029;-91
2024/03/28 23:09:24;;;;;;;15.02;10.98;;;;;;;;;;6142962;23;20013;-90
2024/03/28 23:11:54;;;;;;;15.93;10.77;;;;;;;;;;6159631;23;20002;-95
